createdAt,value
2022-11-30T00:02:21.168Z,19.73
2022-11-30T00:04:49.438Z,18.47
2022-11-30T00:07:17.892Z,16.23
2022-11-30T00:09:46.524Z,24.70
2022-11-30T00:12:16.184Z,17.80
2022-11-30T00:14:44.705Z,16.63
2022-11-30T00:17:13.144Z,14.03
2022-11-30T00:19:41.432Z,17.87
2022-11-30T00:22:09.615Z,16.50
2022-11-30T00:24:42.949Z,16.83
2022-11-30T00:27:11.263Z,15.90
2022-11-30T00:29:40.821Z,19.20
2022-11-30T00:32:09.369Z,17.07
2022-11-30T00:34:37.707Z,16.73
2022-11-30T00:37:05.862Z,21.70
2022-11-30T00:39:35.665Z,17.17
2022-11-30T00:42:04.087Z,13.70
2022-11-30T00:44:32.547Z,15.13
2022-11-30T00:47:02.180Z,17.50
2022-11-30T00:49:30.482Z,17.33
2022-11-30T00:51:58.643Z,16.27
2022-11-30T00:54:26.891Z,17.10
2022-11-30T00:56:55.260Z,21.57
2022-11-30T00:59:23.544Z,16.30
2022-11-30T01:01:51.884Z,18.10
2022-11-30T01:04:30.385Z,14.90
2022-11-30T01:06:58.520Z,14.27
2022-11-30T01:09:26.712Z,23.10
2022-11-30T01:11:55.136Z,15.40
2022-11-30T01:14:23.340Z,13.73
2022-11-30T01:16:56.072Z,12.97
2022-11-30T01:19:27.565Z,17.17
2022-11-30T01:21:56.926Z,17.07
2022-11-30T01:24:28.113Z,18.20
2022-11-30T01:26:56.338Z,18.37
2022-11-30T01:29:24.662Z,15.17
2022-11-30T01:31:52.836Z,15.93
2022-11-30T01:34:21.793Z,15.93
2022-11-30T01:36:54.237Z,14.63
2022-11-30T01:39:23.658Z,19.70
2022-11-30T01:41:51.876Z,16.73
2022-11-30T01:44:52.403Z,18.87
2022-11-30T01:47:27.878Z,19.20
2022-11-30T01:49:58.480Z,19.20
2022-11-30T01:52:32.711Z,25.13
2022-11-30T01:55:03.917Z,21.70
2022-11-30T01:57:39.481Z,24.17
2022-11-30T02:00:09.826Z,19.30
2022-11-30T02:02:41.648Z,33.43
2022-11-30T02:05:10.076Z,21.67
2022-11-30T02:07:39.756Z,23.53
2022-11-30T02:10:08.933Z,17.50
2022-11-30T02:12:42.317Z,18.90
2022-11-30T02:15:12.671Z,20.50
2022-11-30T02:17:47.433Z,12.37
2022-11-30T02:20:58.359Z,18.90
2022-11-30T02:23:46.527Z,13.30
2022-11-30T02:26:26.212Z,13.37
2022-11-30T02:29:07.319Z,14.00
2022-11-30T02:31:39.211Z,16.60
2022-11-30T02:34:07.345Z,17.90
2022-11-30T02:36:38.360Z,15.83
2022-11-30T02:39:07.110Z,13.83
2022-11-30T02:41:39.367Z,14.73
2022-11-30T02:44:11.552Z,15.27
2022-11-30T02:47:02.031Z,11.77
2022-11-30T02:49:36.938Z,15.73
2022-11-30T02:52:05.333Z,19.53
2022-11-30T02:54:33.893Z,21.17
2022-11-30T02:57:05.247Z,16.40
2022-11-30T02:59:37.815Z,18.37
2022-11-30T03:02:06.565Z,15.53
2022-11-30T03:04:34.880Z,23.67
2022-11-30T03:07:04.782Z,15.73
2022-11-30T03:09:32.932Z,21.70
2022-11-30T03:12:01.214Z,21.00
2022-11-30T03:14:29.730Z,25.10
2022-11-30T03:16:59.545Z,27.73
2022-11-30T03:19:30.568Z,24.03
2022-11-30T03:21:58.806Z,30.57
2022-11-30T03:24:27.096Z,25.83
2022-11-30T03:26:55.953Z,30.87
2022-11-30T03:29:24.181Z,28.00
2022-11-30T03:31:55.255Z,30.97
2022-11-30T03:34:27.425Z,28.37
2022-11-30T03:36:55.592Z,28.20
2022-11-30T03:39:24.291Z,27.40
2022-11-30T03:41:52.770Z,24.73
2022-11-30T03:44:21.040Z,30.90
2022-11-30T03:46:49.226Z,26.87
2022-11-30T03:49:17.455Z,31.83
2022-11-30T03:51:47.061Z,32.87
2022-11-30T03:54:16.606Z,27.37
2022-11-30T03:56:44.742Z,31.70
2022-11-30T03:59:12.918Z,24.27
2022-11-30T04:01:41.508Z,23.53
2022-11-30T04:04:09.886Z,26.77
2022-11-30T04:06:38.246Z,25.80
2022-11-30T04:09:08.185Z,27.07
2022-11-30T04:11:37.148Z,26.63
2022-11-30T04:14:05.333Z,22.17
2022-11-30T04:16:33.611Z,24.50
2022-11-30T04:19:02.792Z,25.07
2022-11-30T04:21:31.090Z,22.70
2022-11-30T04:23:59.359Z,25.10
2022-11-30T04:26:29.022Z,24.80
2022-11-30T04:28:57.191Z,24.33
2022-11-30T04:31:25.461Z,26.10
2022-11-30T04:33:54.974Z,22.57
2022-11-30T04:36:26.238Z,21.23
2022-11-30T04:38:56.372Z,24.37
2022-11-30T04:41:24.764Z,22.17
2022-11-30T04:43:54.457Z,24.60
2022-11-30T04:46:23.804Z,25.07
2022-11-30T04:48:52.046Z,23.17
2022-11-30T04:51:20.322Z,21.33
2022-11-30T04:53:48.580Z,21.33
2022-11-30T04:56:16.875Z,20.00
2022-11-30T04:58:48.337Z,25.60
2022-11-30T05:01:19.494Z,23.57
2022-11-30T05:03:47.724Z,24.40
2022-11-30T05:06:16.036Z,24.90
2022-11-30T05:08:45.983Z,25.97
2022-11-30T05:11:14.887Z,30.37
2022-11-30T05:13:43.250Z,29.07
2022-11-30T05:16:11.858Z,24.63
2022-11-30T05:18:41.681Z,27.43
2022-11-30T05:21:13.001Z,28.67
2022-11-30T05:23:43.158Z,29.70
2022-11-30T05:26:11.462Z,23.87
2022-11-30T05:28:39.701Z,28.10
2022-11-30T05:31:07.964Z,26.60
2022-11-30T05:33:36.549Z,28.87
2022-11-30T05:36:10.708Z,27.80
2022-11-30T05:38:39.845Z,27.93
2022-11-30T05:41:17.462Z,26.87
2022-11-30T05:43:46.060Z,29.70
2022-11-30T05:46:15.121Z,32.27
2022-11-30T05:48:43.977Z,33.63
2022-11-30T05:51:30.172Z,37.13
2022-11-30T05:53:59.212Z,37.87
2022-11-30T05:56:36.459Z,41.73
2022-11-30T05:59:04.593Z,37.53
2022-11-30T06:01:41.737Z,36.77
2022-11-30T06:04:10.026Z,42.57
2022-11-30T06:06:39.790Z,39.80
2022-11-30T06:09:11.388Z,38.40
2022-11-30T06:11:47.739Z,43.57
2022-11-30T06:14:15.909Z,34.80
2022-11-30T06:16:44.605Z,41.80
2022-11-30T06:19:13.535Z,37.20
2022-11-30T06:21:46.129Z,35.33
2022-11-30T06:24:14.659Z,33.17
2022-11-30T06:26:42.899Z,38.30
2022-11-30T06:29:11.533Z,35.20
2022-11-30T06:31:39.838Z,32.37
2022-11-30T06:34:08.085Z,35.17
2022-11-30T06:36:36.633Z,43.20
2022-11-30T06:39:08.241Z,38.17
2022-11-30T06:41:36.484Z,38.37
2022-11-30T06:44:10.262Z,33.07
2022-11-30T06:46:38.401Z,40.03
2022-11-30T06:49:07.752Z,39.07
2022-11-30T06:51:39.487Z,45.87
2022-11-30T06:54:09.534Z,45.10
2022-11-30T06:56:37.711Z,40.20
2022-11-30T06:59:05.791Z,71.13
2022-11-30T07:01:33.975Z,45.13
2022-11-30T07:04:02.280Z,50.43
2022-11-30T07:06:30.645Z,48.60
2022-11-30T07:08:58.775Z,43.83
2022-11-30T07:11:28.354Z,43.77
2022-11-30T07:13:56.605Z,45.83
2022-11-30T07:16:26.695Z,41.10
2022-11-30T07:19:00.533Z,43.27
2022-11-30T07:21:32.629Z,42.90
2022-11-30T07:24:18.314Z,34.77
2022-11-30T07:26:48.718Z,33.50
2022-11-30T07:29:16.876Z,37.93
2022-11-30T07:31:51.420Z,31.83
2022-11-30T07:34:19.825Z,39.97
2022-11-30T07:36:48.530Z,32.93
2022-11-30T07:39:16.933Z,33.97
2022-11-30T07:41:45.378Z,35.93
2022-11-30T07:44:15.530Z,37.47
2022-11-30T07:46:43.714Z,35.47
2022-11-30T07:49:12.042Z,37.27
2022-11-30T07:51:40.249Z,50.97
2022-11-30T07:54:10.025Z,44.03
2022-11-30T07:56:38.244Z,53.77
2022-11-30T07:59:08.474Z,47.40
2022-11-30T08:01:38.301Z,42.83
2022-11-30T08:04:07.132Z,44.73
2022-11-30T08:06:35.413Z,40.30
2022-11-30T08:09:04.433Z,38.67
2022-11-30T08:11:36.006Z,42.20
2022-11-30T08:14:04.336Z,38.53
2022-11-30T08:16:38.437Z,43.03
2022-11-30T08:19:06.691Z,41.67
2022-11-30T08:21:34.848Z,41.17
2022-11-30T08:24:04.701Z,53.70
2022-11-30T08:26:37.859Z,48.93
2022-11-30T08:29:05.997Z,45.50
2022-11-30T08:31:35.160Z,50.07
2022-11-30T08:34:09.831Z,48.43
2022-11-30T08:36:47.271Z,57.57
2022-11-30T08:39:18.773Z,45.23
2022-11-30T08:41:47.011Z,48.43
2022-11-30T08:44:20.848Z,46.80
2022-11-30T08:46:52.941Z,45.50
2022-11-30T08:49:24.412Z,48.60
2022-11-30T08:52:16.818Z,45.53
2022-11-30T08:54:47.260Z,39.23
2022-11-30T08:57:19.251Z,52.20
2022-11-30T08:59:47.384Z,42.73
2022-11-30T09:02:17.988Z,42.07
2022-11-30T09:04:49.427Z,39.13
2022-11-30T09:07:22.971Z,43.97
2022-11-30T09:09:51.147Z,43.87
2022-11-30T09:12:19.328Z,52.47
2022-11-30T09:14:55.577Z,48.03
2022-11-30T09:17:28.113Z,45.70
2022-11-30T09:19:57.719Z,55.70
2022-11-30T09:22:26.046Z,50.93
2022-11-30T09:24:54.083Z,55.43
2022-11-30T09:27:23.727Z,51.27
2022-11-30T09:29:55.528Z,53.67
2022-11-30T09:32:23.699Z,59.50
2022-11-30T09:34:53.891Z,57.40
2022-11-30T09:37:23.925Z,56.30
2022-11-30T09:39:52.092Z,49.87
2022-11-30T09:42:54.814Z,54.43
2022-11-30T09:45:29.912Z,60.50
2022-11-30T09:48:15.533Z,61.87
2022-11-30T09:50:44.851Z,60.10
2022-11-30T09:53:22.109Z,56.27
2022-11-30T09:55:54.860Z,58.57
2022-11-30T09:58:34.644Z,65.33
2022-11-30T10:01:06.826Z,53.50
2022-11-30T10:03:35.816Z,61.43
2022-11-30T10:06:05.848Z,59.37
2022-11-30T10:08:48.984Z,55.13
2022-11-30T10:11:30.009Z,55.60
2022-11-30T10:14:03.806Z,55.03
2022-11-30T10:16:36.528Z,60.33
2022-11-30T10:19:08.751Z,54.30
2022-11-30T10:21:47.410Z,60.57
2022-11-30T10:24:27.068Z,58.27
2022-11-30T10:26:56.255Z,56.63
2022-11-30T10:29:36.564Z,64.80
2022-11-30T10:32:14.889Z,66.73
2022-11-30T10:34:43.068Z,64.37
2022-11-30T10:37:19.773Z,60.13
2022-11-30T10:39:54.189Z,61.73
2022-11-30T10:42:26.348Z,59.73
2022-11-30T10:44:59.205Z,57.73
2022-11-30T10:47:28.128Z,55.83
2022-11-30T10:49:57.815Z,59.93
2022-11-30T10:52:35.733Z,55.60
2022-11-30T10:55:14.171Z,61.30
2022-11-30T10:57:44.885Z,55.13
2022-11-30T11:00:18.364Z,54.37
2022-11-30T11:02:47.153Z,53.60
2022-11-30T11:05:23.499Z,47.97
2022-11-30T11:08:06.509Z,52.77
2022-11-30T11:10:47.622Z,58.83
2022-11-30T11:13:17.347Z,56.63
2022-11-30T11:15:57.677Z,52.43
2022-11-30T11:18:31.936Z,61.23
2022-11-30T11:21:07.109Z,51.50
2022-11-30T11:23:42.898Z,49.80
2022-11-30T11:26:22.503Z,51.13
2022-11-30T11:28:57.938Z,52.63
2022-11-30T11:31:34.634Z,57.43
2022-11-30T11:34:03.278Z,57.70
2022-11-30T11:36:32.168Z,56.43
2022-11-30T11:39:00.553Z,58.43
2022-11-30T11:41:37.645Z,54.20
2022-11-30T11:44:17.133Z,58.70
2022-11-30T11:46:55.525Z,62.10
2022-11-30T11:49:25.405Z,51.13
2022-11-30T11:52:01.608Z,50.13
2022-11-30T11:54:31.986Z,52.20
2022-11-30T11:57:10.850Z,48.27
2022-11-30T12:00:00.001Z,46.17
2022-11-30T12:02:33.803Z,50.47
2022-11-30T12:05:08.743Z,40.80
2022-11-30T12:07:39.907Z,39.30
2022-11-30T12:10:50.144Z,42.27
2022-11-30T12:13:13.448Z,35.27
2022-11-30T12:15:45.918Z,37.30
2022-11-30T12:18:23.775Z,36.47
2022-11-30T12:21:01.280Z,39.47
2022-11-30T12:23:57.484Z,34.47
2022-11-30T12:26:38.952Z,33.53
2022-11-30T12:29:25.423Z,30.63
2022-11-30T12:32:07.529Z,32.57
2022-11-30T12:34:48.121Z,32.30
2022-11-30T12:37:23.354Z,33.83
2022-11-30T12:39:56.941Z,33.63
2022-11-30T12:42:27.656Z,33.00
2022-11-30T12:45:00.176Z,34.47
2022-11-30T12:47:47.470Z,30.97
2022-11-30T12:50:34.815Z,30.13
2022-11-30T12:53:08.122Z,29.80
2022-11-30T12:55:38.856Z,29.93
2022-11-30T12:58:14.236Z,33.70
2022-11-30T13:00:52.320Z,27.80
2022-11-30T13:03:35.911Z,31.90
2022-11-30T13:06:09.722Z,28.20
2022-11-30T13:08:44.198Z,23.63
2022-11-30T13:11:18.696Z,29.17
2022-11-30T13:13:51.963Z,25.47
2022-11-30T13:16:22.590Z,28.57
2022-11-30T13:18:55.436Z,28.50
2022-11-30T13:21:26.968Z,29.07
2022-11-30T13:24:02.962Z,31.97
2022-11-30T13:26:33.563Z,29.40
2022-11-30T13:29:21.199Z,29.07
2022-11-30T13:32:02.116Z,30.00
2022-11-30T13:34:30.814Z,27.30
2022-11-30T13:37:03.210Z,28.87
2022-11-30T13:39:46.922Z,28.03
2022-11-30T13:42:39.897Z,30.17
2022-11-30T13:45:32.964Z,27.13
2022-11-30T13:48:18.826Z,24.97
2022-11-30T13:50:50.201Z,25.20
2022-11-30T13:53:24.387Z,29.47
2022-11-30T13:56:10.340Z,35.30
2022-11-30T13:58:38.571Z,28.27
2022-11-30T14:01:27.085Z,25.27
2022-11-30T14:04:32.422Z,27.23
2022-11-30T14:07:02.548Z,26.87
2022-11-30T14:10:03.457Z,26.40
2022-11-30T14:13:00.921Z,23.97
2022-11-30T14:15:54.688Z,25.53
2022-11-30T14:18:36.653Z,28.57
2022-11-30T14:21:19.193Z,32.30
2022-11-30T14:23:57.708Z,26.73
2022-11-30T14:26:43.741Z,26.37
2022-11-30T14:29:20.618Z,24.60
2022-11-30T14:32:01.301Z,26.60
2022-11-30T14:34:42.114Z,28.73
2022-11-30T14:37:25.003Z,28.20
2022-11-30T14:39:58.304Z,28.93
2022-11-30T14:42:38.889Z,29.93
2022-11-30T14:45:15.771Z,27.37
2022-11-30T14:47:48.301Z,27.50
2022-11-30T14:50:23.076Z,29.97
2022-11-30T14:53:13.453Z,28.77
2022-11-30T14:55:45.217Z,33.77
2022-11-30T14:58:24.284Z,31.53
2022-11-30T15:01:26.432Z,33.20
2022-11-30T15:04:21.092Z,34.17
2022-11-30T15:07:03.694Z,37.40
2022-11-30T15:10:00.322Z,36.03
2022-11-30T15:12:38.082Z,32.47
2022-11-30T15:15:11.750Z,30.60
2022-11-30T15:18:07.376Z,33.43
2022-11-30T15:20:39.445Z,33.87
2022-11-30T15:23:18.952Z,33.57
2022-11-30T15:25:55.291Z,30.23
2022-11-30T15:28:25.962Z,34.37
2022-11-30T15:31:05.993Z,28.50
2022-11-30T15:33:47.884Z,29.90
2022-11-30T15:36:31.923Z,32.47
2022-11-30T15:39:04.735Z,37.03
2022-11-30T15:41:34.568Z,29.40
2022-11-30T15:44:04.461Z,35.83
2022-11-30T15:46:38.747Z,29.90
2022-11-30T15:49:24.256Z,33.47
2022-11-30T15:52:02.211Z,36.83
2022-11-30T15:54:54.200Z,33.53
2022-11-30T15:58:05.150Z,30.63
2022-11-30T16:00:34.086Z,23.97
2022-11-30T16:03:34.005Z,22.47
2022-11-30T16:06:18.205Z,24.07
2022-11-30T16:08:47.869Z,21.10
2022-11-30T16:11:19.634Z,23.43
2022-11-30T16:13:51.537Z,23.50
2022-11-30T16:16:29.580Z,24.20
2022-11-30T16:19:20.176Z,25.60
2022-11-30T16:21:57.445Z,24.43
2022-11-30T16:24:43.173Z,24.93
2022-11-30T16:27:17.843Z,24.03
2022-11-30T16:29:52.754Z,24.73
2022-11-30T16:32:21.388Z,22.50
2022-11-30T16:34:49.530Z,24.17
2022-11-30T16:37:27.083Z,23.30
2022-11-30T16:39:55.523Z,23.50
2022-11-30T16:42:28.707Z,28.03
2022-11-30T16:44:58.420Z,26.03
2022-11-30T16:47:51.248Z,28.10
2022-11-30T16:50:27.311Z,27.90
2022-11-30T16:53:00.020Z,26.53
2022-11-30T16:55:35.327Z,24.37
2022-11-30T16:58:22.292Z,24.23
2022-11-30T17:00:55.196Z,24.47
2022-11-30T17:03:27.921Z,22.50
2022-11-30T17:06:02.695Z,25.53
2022-11-30T17:08:33.380Z,27.20
2022-11-30T17:11:02.682Z,25.43
2022-11-30T17:13:32.262Z,29.03
2022-11-30T17:16:09.033Z,31.83
2022-11-30T17:18:45.521Z,38.83
2022-11-30T17:21:15.808Z,30.03
2022-11-30T17:23:46.339Z,33.80
2022-11-30T17:26:15.344Z,30.30
2022-11-30T17:28:45.298Z,29.63
2022-11-30T17:31:17.125Z,27.90
2022-11-30T17:33:54.601Z,38.13
2022-11-30T17:36:27.468Z,31.37
2022-11-30T17:39:05.862Z,30.70
2022-11-30T17:41:34.148Z,33.53
2022-11-30T17:44:04.912Z,30.90
2022-11-30T17:46:44.095Z,32.87
2022-11-30T17:49:19.030Z,35.57
2022-11-30T17:51:47.381Z,33.43
2022-11-30T17:54:17.370Z,28.70
2022-11-30T17:56:48.045Z,38.13
2022-11-30T17:59:17.650Z,34.83
2022-11-30T18:01:51.357Z,29.77
2022-11-30T18:04:21.590Z,34.27
2022-11-30T18:06:50.125Z,33.10
2022-11-30T18:09:27.861Z,36.73
2022-11-30T18:11:56.147Z,33.33
2022-11-30T18:14:24.596Z,33.47
2022-11-30T18:16:55.048Z,35.13
2022-11-30T18:19:24.893Z,31.30
2022-11-30T18:21:56.140Z,35.33
2022-11-30T18:24:28.753Z,34.77
2022-11-30T18:26:56.980Z,29.23
2022-11-30T18:29:26.803Z,31.60
2022-11-30T18:31:56.698Z,28.17
2022-11-30T18:34:25.039Z,36.50
2022-11-30T18:36:53.357Z,30.77
2022-11-30T18:39:21.880Z,32.30
2022-11-30T18:41:58.393Z,30.40
2022-11-30T18:44:27.228Z,33.87
2022-11-30T18:46:59.708Z,35.10
2022-11-30T18:49:28.315Z,33.40
2022-11-30T18:52:02.550Z,37.13
2022-11-30T18:54:31.718Z,34.80
2022-11-30T18:57:00.081Z,39.67
2022-11-30T18:59:28.797Z,39.23
2022-11-30T19:01:59.401Z,34.73
2022-11-30T19:04:30.528Z,34.60
2022-11-30T19:06:58.815Z,36.03
2022-11-30T19:09:27.090Z,39.17
2022-11-30T19:11:55.829Z,39.00
2022-11-30T19:14:30.769Z,46.47
2022-11-30T19:17:00.662Z,41.37
2022-11-30T19:19:30.490Z,43.07
2022-11-30T19:21:58.772Z,45.90
2022-11-30T19:24:32.218Z,42.57
2022-11-30T19:27:09.972Z,48.60
2022-11-30T19:29:38.453Z,39.77
2022-11-30T19:32:07.001Z,47.03
2022-11-30T19:34:44.600Z,47.53
2022-11-30T19:37:15.358Z,48.30
2022-11-30T19:39:48.756Z,39.63
2022-11-30T19:42:17.505Z,50.57
2022-11-30T19:44:53.668Z,41.63
2022-11-30T19:47:22.280Z,42.63
2022-11-30T19:49:53.552Z,45.47
2022-11-30T19:52:22.080Z,47.53
2022-11-30T19:54:53.522Z,42.10
2022-11-30T19:57:21.761Z,42.13
2022-11-30T19:59:51.168Z,44.53
2022-11-30T20:02:19.469Z,48.37
2022-11-30T20:04:47.907Z,48.03
2022-11-30T20:07:18.424Z,46.97
2022-11-30T20:09:47.106Z,42.73
2022-11-30T20:12:15.688Z,45.87
2022-11-30T20:14:44.616Z,43.83
2022-11-30T20:17:13.323Z,48.47
2022-11-30T20:20:31.112Z,45.87
2022-11-30T20:23:13.433Z,50.53
2022-11-30T20:25:45.801Z,49.27
2022-11-30T20:28:14.581Z,39.27
2022-11-30T20:30:52.139Z,41.20
2022-11-30T20:33:20.974Z,48.60
2022-11-30T20:35:52.438Z,44.60
2022-11-30T20:38:35.715Z,48.00
2022-11-30T20:41:10.254Z,44.17
2022-11-30T20:43:38.638Z,46.57
2022-11-30T20:46:14.449Z,48.33
2022-11-30T20:48:42.862Z,55.37
2022-11-30T20:51:32.436Z,41.97
2022-11-30T20:54:03.371Z,48.77
2022-11-30T20:56:31.681Z,47.77
2022-11-30T20:59:02.138Z,44.97
2022-11-30T21:01:31.836Z,50.97
2022-11-30T21:04:00.987Z,42.47
2022-11-30T21:06:29.810Z,52.07
2022-11-30T21:08:59.390Z,47.80
2022-11-30T21:11:29.605Z,52.60
2022-11-30T21:14:01.262Z,53.23
2022-11-30T21:16:30.167Z,49.20
2022-11-30T21:18:59.240Z,46.10
2022-11-30T21:21:30.974Z,47.07
2022-11-30T21:24:00.014Z,51.47
2022-11-30T21:26:30.464Z,45.33
2022-11-30T21:29:01.151Z,43.93
2022-11-30T21:31:30.711Z,53.93
2022-11-30T21:33:59.074Z,45.77
2022-11-30T21:36:27.715Z,50.23
2022-11-30T21:39:05.641Z,46.20
2022-11-30T21:41:46.541Z,46.53
2022-11-30T21:44:16.243Z,43.67
2022-11-30T21:46:45.647Z,45.40
2022-11-30T21:49:14.617Z,47.40
2022-11-30T21:51:48.113Z,38.27
2022-11-30T21:54:16.317Z,42.10
2022-11-30T21:56:52.291Z,42.53
2022-11-30T21:59:27.796Z,46.03
2022-11-30T22:01:59.003Z,50.40
2022-11-30T22:04:27.392Z,41.57
2022-11-30T22:06:55.681Z,48.40
2022-11-30T22:09:24.251Z,48.53
2022-11-30T22:12:07.859Z,56.33
2022-11-30T22:14:36.398Z,43.03
2022-11-30T22:17:07.060Z,43.33
2022-11-30T22:19:35.401Z,54.07
2022-11-30T22:22:08.740Z,42.07
2022-11-30T22:24:36.995Z,45.70
2022-11-30T22:27:06.853Z,40.43
2022-11-30T22:29:35.175Z,46.83
2022-11-30T22:32:03.874Z,40.60
2022-11-30T22:34:33.265Z,48.07
2022-11-30T22:37:02.104Z,40.97
2022-11-30T22:39:30.330Z,47.20
2022-11-30T22:41:59.279Z,39.87
2022-11-30T22:44:32.526Z,42.83
2022-11-30T22:47:00.881Z,47.00
2022-11-30T22:49:29.206Z,42.00
2022-11-30T22:51:57.701Z,43.17
2022-11-30T22:54:28.310Z,44.90
2022-11-30T22:56:56.720Z,48.87
2022-11-30T22:59:29.313Z,49.23
2022-11-30T23:01:57.619Z,43.90
2022-11-30T23:04:25.993Z,47.73
2022-11-30T23:06:54.682Z,47.43
2022-11-30T23:09:23.687Z,57.97
2022-11-30T23:11:52.282Z,45.87
2022-11-30T23:14:21.300Z,45.33
2022-11-30T23:16:51.266Z,49.73
2022-11-30T23:19:19.460Z,50.80
2022-11-30T23:21:50.136Z,46.70
2022-11-30T23:24:20.774Z,58.07
2022-11-30T23:26:49.312Z,56.37
2022-11-30T23:29:18.451Z,52.00
2022-11-30T23:31:47.234Z,52.70
2022-11-30T23:34:19.374Z,50.07
2022-11-30T23:36:48.438Z,53.40
2022-11-30T23:39:17.422Z,50.33
2022-11-30T23:41:45.903Z,56.87
2022-11-30T23:44:15.515Z,53.47
2022-11-30T23:46:44.937Z,53.00
2022-11-30T23:49:14.163Z,61.67
2022-11-30T23:51:46.591Z,62.70
2022-11-30T23:54:15.198Z,54.33
2022-11-30T23:56:44.930Z,54.30
2022-11-30T23:59:13.272Z,53.93
